sensor_id;sensor_type;location;lat;lon;timestamp;P1;durP1;ratioP1;P2;durP2;ratioP2
13321;SDS011;6730;46.248;6.930;2023-02-15T00:01:18;2.30;;;1.60;;
13321;SDS011;6730;46.248;6.930;2023-02-15T00:03:43;1.97;;;1.33;;
13321;SDS011;6730;46.248;6.930;2023-02-15T00:06:09;3.37;;;1.80;;
13321;SDS011;6730;46.248;6.930;2023-02-15T00:08:35;3.47;;;1.43;;
13321;SDS011;6730;46.248;6.930;2023-02-15T00:11:07;1.27;;;1.17;;
13321;SDS011;6730;46.248;6.930;2023-02-15T00:13:37;1.40;;;1.30;;
13321;SDS011;6730;46.248;6.930;2023-02-15T00:16:06;1.97;;;1.20;;
13321;SDS011;6730;46.248;6.930;2023-02-15T00:18:33;2.03;;;1.40;;
13321;SDS011;6730;46.248;6.930;2023-02-15T00:21:03;1.50;;;1.20;;
13321;SDS011;6730;46.248;6.930;2023-02-15T00:23:30;2.40;;;1.60;;
13321;SDS011;6730;46.248;6.930;2023-02-15T00:28:48;2.70;;;1.20;;
13321;SDS011;6730;46.248;6.930;2023-02-15T00:31:14;1.40;;;1.20;;
13321;SDS011;6730;46.248;6.930;2023-02-15T00:33:40;1.70;;;0.93;;
13321;SDS011;6730;46.248;6.930;2023-02-15T00:36:06;1.30;;;1.10;;
13321;SDS011;6730;46.248;6.930;2023-02-15T00:38:33;1.47;;;0.90;;
13321;SDS011;6730;46.248;6.930;2023-02-15T00:41:00;1.50;;;1.03;;
13321;SDS011;6730;46.248;6.930;2023-02-15T00:43:28;1.20;;;1.00;;
13321;SDS011;6730;46.248;6.930;2023-02-15T00:45:54;4.63;;;2.20;;
13321;SDS011;6730;46.248;6.930;2023-02-15T00:48:20;2.20;;;1.50;;
13321;SDS011;6730;46.248;6.930;2023-02-15T00:50:48;2.87;;;2.17;;
13321;SDS011;6730;46.248;6.930;2023-02-15T00:53:16;2.17;;;1.67;;
13321;SDS011;6730;46.248;6.930;2023-02-15T00:55:41;2.90;;;1.87;;
13321;SDS011;6730;46.248;6.930;2023-02-15T00:58:08;2.93;;;2.10;;
13321;SDS011;6730;46.248;6.930;2023-02-15T01:00:34;1.97;;;1.50;;
13321;SDS011;6730;46.248;6.930;2023-02-15T01:03:00;3.10;;;1.03;;
13321;SDS011;6730;46.248;6.930;2023-02-15T01:05:26;2.90;;;2.00;;
13321;SDS011;6730;46.248;6.930;2023-02-15T01:07:52;2.33;;;1.87;;
13321;SDS011;6730;46.248;6.930;2023-02-15T01:10:18;2.63;;;1.83;;
13321;SDS011;6730;46.248;6.930;2023-02-15T01:12:43;2.77;;;1.60;;
13321;SDS011;6730;46.248;6.930;2023-02-15T01:15:09;2.73;;;1.97;;
13321;SDS011;6730;46.248;6.930;2023-02-15T01:17:35;3.13;;;1.77;;
13321;SDS011;6730;46.248;6.930;2023-02-15T01:20:01;2.20;;;1.50;;
13321;SDS011;6730;46.248;6.930;2023-02-15T01:22:27;3.17;;;1.60;;
13321;SDS011;6730;46.248;6.930;2023-02-15T01:24:52;2.07;;;1.63;;
13321;SDS011;6730;46.248;6.930;2023-02-15T01:27:18;2.03;;;1.50;;
13321;SDS011;6730;46.248;6.930;2023-02-15T01:29:44;2.67;;;1.47;;
13321;SDS011;6730;46.248;6.930;2023-02-15T01:32:09;2.40;;;1.57;;
13321;SDS011;6730;46.248;6.930;2023-02-15T01:34:35;2.07;;;1.40;;
13321;SDS011;6730;46.248;6.930;2023-02-15T01:37:01;1.97;;;1.60;;
13321;SDS011;6730;46.248;6.930;2023-02-15T01:39:26;3.30;;;1.63;;
13321;SDS011;6730;46.248;6.930;2023-02-15T01:41:52;1.33;;;1.17;;
13321;SDS011;6730;46.248;6.930;2023-02-15T01:47:23;2.07;;;1.37;;
13321;SDS011;6730;46.248;6.930;2023-02-15T01:50:03;2.60;;;1.77;;
13321;SDS011;6730;46.248;6.930;2023-02-15T01:52:38;2.30;;;1.63;;
13321;SDS011;6730;46.248;6.930;2023-02-15T01:55:29;2.37;;;1.67;;
13321;SDS011;6730;46.248;6.930;2023-02-15T01:57:58;1.83;;;1.30;;
13321;SDS011;6730;46.248;6.930;2023-02-15T02:00:24;1.60;;;1.00;;
13321;SDS011;6730;46.248;6.930;2023-02-15T02:02:50;1.60;;;1.27;;
13321;SDS011;6730;46.248;6.930;2023-02-15T02:05:19;1.53;;;1.00;;
13321;SDS011;6730;46.248;6.930;2023-02-15T02:07:45;1.37;;;1.20;;
13321;SDS011;6730;46.248;6.930;2023-02-15T02:10:15;1.90;;;1.30;;
13321;SDS011;6730;46.248;6.930;2023-02-15T02:12:43;1.80;;;1.10;;
13321;SDS011;6730;46.248;6.930;2023-02-15T02:15:11;0.67;;;0.67;;
13321;SDS011;6730;46.248;6.930;2023-02-15T02:17:54;1.77;;;1.00;;
13321;SDS011;6730;46.248;6.930;2023-02-15T02:28:41;1.63;;;1.33;;
13321;SDS011;6730;46.248;6.930;2023-02-15T02:37:14;1.20;;;0.80;;
13321;SDS011;6730;46.248;6.930;2023-02-15T02:45:49;0.80;;;0.47;;
13321;SDS011;6730;46.248;6.930;2023-02-15T02:48:24;0.73;;;0.60;;
13321;SDS011;6730;46.248;6.930;2023-02-15T02:50:52;1.40;;;1.03;;
13321;SDS011;6730;46.248;6.930;2023-02-15T02:53:18;2.23;;;1.03;;
13321;SDS011;6730;46.248;6.930;2023-02-15T02:55:48;3.07;;;1.00;;
13321;SDS011;6730;46.248;6.930;2023-02-15T03:00:57;1.83;;;0.90;;
13321;SDS011;6730;46.248;6.930;2023-02-15T03:03:38;1.47;;;0.67;;
13321;SDS011;6730;46.248;6.930;2023-02-15T03:06:10;1.30;;;0.80;;
13321;SDS011;6730;46.248;6.930;2023-02-15T03:08:44;0.90;;;0.77;;
13321;SDS011;6730;46.248;6.930;2023-02-15T03:11:14;0.40;;;0.40;;
13321;SDS011;6730;46.248;6.930;2023-02-15T03:13:40;1.40;;;0.60;;
13321;SDS011;6730;46.248;6.930;2023-02-15T03:16:08;1.20;;;0.90;;
13321;SDS011;6730;46.248;6.930;2023-02-15T03:18:53;0.80;;;0.70;;
13321;SDS011;6730;46.248;6.930;2023-02-15T03:21:28;0.47;;;0.47;;
13321;SDS011;6730;46.248;6.930;2023-02-15T03:24:00;1.60;;;0.80;;
13321;SDS011;6730;46.248;6.930;2023-02-15T03:26:32;0.83;;;0.77;;
13321;SDS011;6730;46.248;6.930;2023-02-15T03:28:59;1.00;;;0.80;;
13321;SDS011;6730;46.248;6.930;2023-02-15T03:31:28;0.80;;;0.53;;
13321;SDS011;6730;46.248;6.930;2023-02-15T03:34:02;0.50;;;0.50;;
13321;SDS011;6730;46.248;6.930;2023-02-15T03:36:33;0.83;;;0.50;;
13321;SDS011;6730;46.248;6.930;2023-02-15T03:41:53;0.67;;;0.50;;
13321;SDS011;6730;46.248;6.930;2023-02-15T03:44:29;0.90;;;0.70;;
13321;SDS011;6730;46.248;6.930;2023-02-15T03:47:01;0.70;;;0.60;;
13321;SDS011;6730;46.248;6.930;2023-02-15T03:52:01;0.80;;;0.70;;
13321;SDS011;6730;46.248;6.930;2023-02-15T03:54:30;0.50;;;0.50;;
13321;SDS011;6730;46.248;6.930;2023-02-15T03:57:07;0.57;;;0.53;;
13321;SDS011;6730;46.248;6.930;2023-02-15T03:59:54;0.57;;;0.47;;
13321;SDS011;6730;46.248;6.930;2023-02-15T04:05:26;0.80;;;0.67;;
13321;SDS011;6730;46.248;6.930;2023-02-15T04:07:51;1.53;;;1.10;;
13321;SDS011;6730;46.248;6.930;2023-02-15T04:10:17;1.10;;;0.73;;
13321;SDS011;6730;46.248;6.930;2023-02-15T04:13:01;1.10;;;0.80;;
13321;SDS011;6730;46.248;6.930;2023-02-15T04:15:27;0.83;;;0.70;;
13321;SDS011;6730;46.248;6.930;2023-02-15T04:18:11;2.53;;;0.93;;
13321;SDS011;6730;46.248;6.930;2023-02-15T04:20:37;0.93;;;0.80;;
13321;SDS011;6730;46.248;6.930;2023-02-15T04:23:21;1.63;;;1.40;;
13321;SDS011;6730;46.248;6.930;2023-02-15T04:26:05;1.53;;;1.30;;
13321;SDS011;6730;46.248;6.930;2023-02-15T04:28:31;1.67;;;1.20;;
13321;SDS011;6730;46.248;6.930;2023-02-15T04:30:56;1.37;;;1.27;;
13321;SDS011;6730;46.248;6.930;2023-02-15T04:33:22;1.93;;;1.20;;
13321;SDS011;6730;46.248;6.930;2023-02-15T04:35:48;1.33;;;1.10;;
13321;SDS011;6730;46.248;6.930;2023-02-15T04:38:13;1.60;;;1.20;;
13321;SDS011;6730;46.248;6.930;2023-02-15T04:40:39;1.60;;;1.30;;
13321;SDS011;6730;46.248;6.930;2023-02-15T04:43:05;1.60;;;1.37;;
13321;SDS011;6730;46.248;6.930;2023-02-15T04:45:30;1.43;;;1.13;;
13321;SDS011;6730;46.248;6.930;2023-02-15T04:47:59;1.30;;;0.90;;
13321;SDS011;6730;46.248;6.930;2023-02-15T04:50:24;2.63;;;1.23;;
13321;SDS011;6730;46.248;6.930;2023-02-15T04:52:50;1.57;;;1.20;;
13321;SDS011;6730;46.248;6.930;2023-02-15T04:55:16;1.10;;;1.00;;
13321;SDS011;6730;46.248;6.930;2023-02-15T04:57:41;1.20;;;1.00;;
13321;SDS011;6730;46.248;6.930;2023-02-15T05:00:07;0.97;;;0.87;;
13321;SDS011;6730;46.248;6.930;2023-02-15T05:02:34;2.37;;;1.20;;
13321;SDS011;6730;46.248;6.930;2023-02-15T05:04:59;1.90;;;1.00;;
13321;SDS011;6730;46.248;6.930;2023-02-15T05:07:25;1.23;;;1.03;;
13321;SDS011;6730;46.248;6.930;2023-02-15T05:09:50;1.13;;;0.77;;
13321;SDS011;6730;46.248;6.930;2023-02-15T05:12:16;1.43;;;1.00;;
13321;SDS011;6730;46.248;6.930;2023-02-15T05:14:41;1.37;;;1.10;;
13321;SDS011;6730;46.248;6.930;2023-02-15T05:17:07;1.60;;;1.00;;
13321;SDS011;6730;46.248;6.930;2023-02-15T05:19:33;1.97;;;1.00;;
13321;SDS011;6730;46.248;6.930;2023-02-15T05:21:58;2.70;;;0.90;;
13321;SDS011;6730;46.248;6.930;2023-02-15T05:24:24;0.90;;;0.77;;
13321;SDS011;6730;46.248;6.930;2023-02-15T05:27:12;1.23;;;0.60;;
13321;SDS011;6730;46.248;6.930;2023-02-15T05:29:56;0.77;;;0.57;;
13321;SDS011;6730;46.248;6.930;2023-02-15T05:32:22;0.40;;;0.40;;
13321;SDS011;6730;46.248;6.930;2023-02-15T05:34:47;1.20;;;0.90;;
13321;SDS011;6730;46.248;6.930;2023-02-15T05:37:13;1.50;;;1.00;;
13321;SDS011;6730;46.248;6.930;2023-02-15T05:39:38;1.37;;;1.00;;
13321;SDS011;6730;46.248;6.930;2023-02-15T05:42:04;1.77;;;1.30;;
13321;SDS011;6730;46.248;6.930;2023-02-15T05:44:30;3.03;;;1.30;;
13321;SDS011;6730;46.248;6.930;2023-02-15T05:46:56;2.90;;;1.50;;
13321;SDS011;6730;46.248;6.930;2023-02-15T05:49:22;1.30;;;1.10;;
13321;SDS011;6730;46.248;6.930;2023-02-15T05:51:48;1.17;;;0.93;;
13321;SDS011;6730;46.248;6.930;2023-02-15T05:54:14;1.20;;;1.00;;
13321;SDS011;6730;46.248;6.930;2023-02-15T05:56:43;0.97;;;0.80;;
13321;SDS011;6730;46.248;6.930;2023-02-15T05:59:09;1.60;;;1.07;;
13321;SDS011;6730;46.248;6.930;2023-02-15T06:01:35;1.27;;;1.00;;
13321;SDS011;6730;46.248;6.930;2023-02-15T06:04:01;0.63;;;0.63;;
13321;SDS011;6730;46.248;6.930;2023-02-15T06:06:26;3.90;;;1.67;;
13321;SDS011;6730;46.248;6.930;2023-02-15T06:08:52;1.70;;;1.50;;
13321;SDS011;6730;46.248;6.930;2023-02-15T06:11:18;2.20;;;1.37;;
13321;SDS011;6730;46.248;6.930;2023-02-15T06:13:43;2.60;;;1.20;;
13321;SDS011;6730;46.248;6.930;2023-02-15T06:16:09;1.90;;;1.30;;
13321;SDS011;6730;46.248;6.930;2023-02-15T06:18:35;1.10;;;0.90;;
13321;SDS011;6730;46.248;6.930;2023-02-15T06:21:00;1.60;;;0.93;;
13321;SDS011;6730;46.248;6.930;2023-02-15T06:23:26;1.00;;;0.60;;
13321;SDS011;6730;46.248;6.930;2023-02-15T06:25:52;0.80;;;0.77;;
13321;SDS011;6730;46.248;6.930;2023-02-15T06:28:17;1.20;;;0.80;;
13321;SDS011;6730;46.248;6.930;2023-02-15T06:30:43;1.30;;;0.90;;
13321;SDS011;6730;46.248;6.930;2023-02-15T06:33:08;1.23;;;0.70;;
13321;SDS011;6730;46.248;6.930;2023-02-15T06:35:34;1.10;;;0.90;;
13321;SDS011;6730;46.248;6.930;2023-02-15T06:38:00;0.70;;;0.70;;
13321;SDS011;6730;46.248;6.930;2023-02-15T06:40:25;0.57;;;0.43;;
13321;SDS011;6730;46.248;6.930;2023-02-15T06:42:51;7.13;;;0.70;;
13321;SDS011;6730;46.248;6.930;2023-02-15T06:45:17;0.53;;;0.50;;
13321;SDS011;6730;46.248;6.930;2023-02-15T06:47:42;1.23;;;0.60;;
13321;SDS011;6730;46.248;6.930;2023-02-15T06:50:08;0.67;;;0.63;;
13321;SDS011;6730;46.248;6.930;2023-02-15T06:52:35;0.50;;;0.40;;
13321;SDS011;6730;46.248;6.930;2023-02-15T06:55:00;0.53;;;0.50;;
13321;SDS011;6730;46.248;6.930;2023-02-15T06:57:26;0.70;;;0.60;;
13321;SDS011;6730;46.248;6.930;2023-02-15T06:59:54;0.90;;;0.50;;
13321;SDS011;6730;46.248;6.930;2023-02-15T07:02:20;1.03;;;0.40;;
13321;SDS011;6730;46.248;6.930;2023-02-15T07:04:46;1.70;;;0.37;;
13321;SDS011;6730;46.248;6.930;2023-02-15T07:07:12;2.83;;;0.43;;
13321;SDS011;6730;46.248;6.930;2023-02-15T07:09:38;0.40;;;0.40;;
13321;SDS011;6730;46.248;6.930;2023-02-15T07:12:04;0.43;;;0.40;;
13321;SDS011;6730;46.248;6.930;2023-02-15T07:14:49;0.33;;;0.33;;
13321;SDS011;6730;46.248;6.930;2023-02-15T07:17:14;0.80;;;0.50;;
13321;SDS011;6730;46.248;6.930;2023-02-15T07:19:40;0.60;;;0.40;;
13321;SDS011;6730;46.248;6.930;2023-02-15T07:22:06;0.60;;;0.60;;
13321;SDS011;6730;46.248;6.930;2023-02-15T07:24:31;0.57;;;0.50;;
13321;SDS011;6730;46.248;6.930;2023-02-15T07:26:57;0.67;;;0.50;;
13321;SDS011;6730;46.248;6.930;2023-02-15T07:29:23;0.60;;;0.60;;
13321;SDS011;6730;46.248;6.930;2023-02-15T07:31:49;2.43;;;0.60;;
13321;SDS011;6730;46.248;6.930;2023-02-15T07:34:15;0.87;;;0.80;;
13321;SDS011;6730;46.248;6.930;2023-02-15T07:36:41;0.67;;;0.67;;
13321;SDS011;6730;46.248;6.930;2023-02-15T07:39:13;1.33;;;0.73;;
13321;SDS011;6730;46.248;6.930;2023-02-15T07:41:42;0.80;;;0.60;;
13321;SDS011;6730;46.248;6.930;2023-02-15T07:44:12;2.87;;;1.50;;
13321;SDS011;6730;46.248;6.930;2023-02-15T07:46:38;2.35;;;1.40;;
13321;SDS011;6730;46.248;6.930;2023-02-15T07:49:04;2.78;;;1.80;;
13321;SDS011;6730;46.248;6.930;2023-02-15T07:51:29;2.45;;;1.98;;
13321;SDS011;6730;46.248;6.930;2023-02-15T07:53:55;2.88;;;1.95;;
13321;SDS011;6730;46.248;6.930;2023-02-15T07:56:21;2.47;;;2.13;;
13321;SDS011;6730;46.248;6.930;2023-02-15T07:58:46;2.63;;;2.13;;
13321;SDS011;6730;46.248;6.930;2023-02-15T08:01:28;2.30;;;1.90;;
13321;SDS011;6730;46.248;6.930;2023-02-15T08:03:59;2.67;;;1.60;;
13321;SDS011;6730;46.248;6.930;2023-02-15T08:06:26;2.88;;;2.20;;
13321;SDS011;6730;46.248;6.930;2023-02-15T08:08:53;3.58;;;2.20;;
13321;SDS011;6730;46.248;6.930;2023-02-15T08:14:05;3.13;;;2.55;;
13321;SDS011;6730;46.248;6.930;2023-02-15T08:16:38;3.35;;;2.20;;
13321;SDS011;6730;46.248;6.930;2023-02-15T08:21:33;3.50;;;1.80;;
13321;SDS011;6730;46.248;6.930;2023-02-15T08:24:00;3.35;;;2.60;;
13321;SDS011;6730;46.248;6.930;2023-02-15T08:26:27;4.60;;;2.75;;
13321;SDS011;6730;46.248;6.930;2023-02-15T08:28:54;2.85;;;2.53;;
13321;SDS011;6730;46.248;6.930;2023-02-15T08:31:20;4.95;;;2.88;;
13321;SDS011;6730;46.248;6.930;2023-02-15T08:33:46;4.38;;;2.63;;
13321;SDS011;6730;46.248;6.930;2023-02-15T08:36:15;3.95;;;2.85;;
13321;SDS011;6730;46.248;6.930;2023-02-15T08:38:42;5.80;;;3.33;;
13321;SDS011;6730;46.248;6.930;2023-02-15T08:41:15;3.47;;;3.15;;
13321;SDS011;6730;46.248;6.930;2023-02-15T08:43:44;8.90;;;3.10;;
13321;SDS011;6730;46.248;6.930;2023-02-15T08:46:11;3.83;;;3.03;;
13321;SDS011;6730;46.248;6.930;2023-02-15T08:48:38;8.38;;;3.42;;
13321;SDS011;6730;46.248;6.930;2023-02-15T08:51:25;3.90;;;2.97;;
13321;SDS011;6730;46.248;6.930;2023-02-15T08:53:55;2.97;;;2.13;;
13321;SDS011;6730;46.248;6.930;2023-02-15T08:56:26;2.40;;;2.10;;
13321;SDS011;6730;46.248;6.930;2023-02-15T08:58:53;11.45;;;2.75;;
13321;SDS011;6730;46.248;6.930;2023-02-15T09:01:23;7.43;;;3.80;;
13321;SDS011;6730;46.248;6.930;2023-02-15T09:04:01;8.27;;;5.43;;
13321;SDS011;6730;46.248;6.930;2023-02-15T09:06:33;12.20;;;4.88;;
13321;SDS011;6730;46.248;6.930;2023-02-15T09:08:59;6.18;;;4.63;;
13321;SDS011;6730;46.248;6.930;2023-02-15T09:11:26;6.50;;;3.92;;
13321;SDS011;6730;46.248;6.930;2023-02-15T09:13:57;7.40;;;3.30;;
13321;SDS011;6730;46.248;6.930;2023-02-15T09:16:26;6.05;;;3.95;;
13321;SDS011;6730;46.248;6.930;2023-02-15T09:18:54;5.75;;;4.55;;
13321;SDS011;6730;46.248;6.930;2023-02-15T09:21:22;11.10;;;5.47;;
13321;SDS011;6730;46.248;6.930;2023-02-15T09:23:51;9.73;;;5.80;;
13321;SDS011;6730;46.248;6.930;2023-02-15T09:26:21;9.07;;;6.47;;
13321;SDS011;6730;46.248;6.930;2023-02-15T09:28:48;9.48;;;6.05;;
13321;SDS011;6730;46.248;6.930;2023-02-15T09:31:18;9.20;;;5.38;;
13321;SDS011;6730;46.248;6.930;2023-02-15T09:33:46;8.90;;;4.88;;
13321;SDS011;6730;46.248;6.930;2023-02-15T09:38:43;10.95;;;5.57;;
13321;SDS011;6730;46.248;6.930;2023-02-15T09:46:49;11.73;;;6.85;;
13321;SDS011;6730;46.248;6.930;2023-02-15T09:54:49;9.93;;;6.82;;
13321;SDS011;6730;46.248;6.930;2023-02-15T09:57:26;8.98;;;6.05;;
13321;SDS011;6730;46.248;6.930;2023-02-15T10:14:00;9.52;;;6.10;;
13321;SDS011;6730;46.248;6.930;2023-02-15T10:19:01;7.80;;;5.53;;
13321;SDS011;6730;46.248;6.930;2023-02-15T10:26:56;7.25;;;4.95;;
13321;SDS011;6730;46.248;6.930;2023-02-15T10:34:42;8.65;;;5.20;;
13321;SDS011;6730;46.248;6.930;2023-02-15T10:37:46;7.97;;;5.88;;
13321;SDS011;6730;46.248;6.930;2023-02-15T10:43:33;8.10;;;5.75;;
13321;SDS011;6730;46.248;6.930;2023-02-15T10:49:01;7.60;;;5.38;;
13321;SDS011;6730;46.248;6.930;2023-02-15T10:54:17;9.65;;;5.75;;
13321;SDS011;6730;46.248;6.930;2023-02-15T10:56:53;10.18;;;5.47;;
13321;SDS011;6730;46.248;6.930;2023-02-15T11:08:07;8.30;;;4.78;;
13321;SDS011;6730;46.248;6.930;2023-02-15T11:10:36;7.18;;;5.03;;
13321;SDS011;6730;46.248;6.930;2023-02-15T11:13:05;9.88;;;5.38;;
13321;SDS011;6730;46.248;6.930;2023-02-15T11:15:57;9.27;;;6.03;;
13321;SDS011;6730;46.248;6.930;2023-02-15T11:23:47;6.93;;;5.32;;
13321;SDS011;6730;46.248;6.930;2023-02-15T11:26:19;7.53;;;5.60;;
13321;SDS011;6730;46.248;6.930;2023-02-15T11:28:54;7.72;;;4.90;;
13321;SDS011;6730;46.248;6.930;2023-02-15T11:31:26;9.73;;;5.15;;
13321;SDS011;6730;46.248;6.930;2023-02-15T11:34:03;7.72;;;4.78;;
13321;SDS011;6730;46.248;6.930;2023-02-15T11:36:37;6.70;;;4.30;;
13321;SDS011;6730;46.248;6.930;2023-02-15T11:39:09;8.07;;;4.72;;
13321;SDS011;6730;46.248;6.930;2023-02-15T11:41:39;8.05;;;4.85;;
13321;SDS011;6730;46.248;6.930;2023-02-15T11:46:43;9.07;;;5.03;;
13321;SDS011;6730;46.248;6.930;2023-02-15T11:49:13;9.13;;;5.30;;
13321;SDS011;6730;46.248;6.930;2023-02-15T11:51:49;5.80;;;4.78;;
13321;SDS011;6730;46.248;6.930;2023-02-15T11:54:17;8.30;;;5.32;;
13321;SDS011;6730;46.248;6.930;2023-02-15T11:56:45;7.28;;;4.90;;
13321;SDS011;6730;46.248;6.930;2023-02-15T11:59:14;6.22;;;4.65;;
13321;SDS011;6730;46.248;6.930;2023-02-15T12:01:49;6.28;;;4.72;;
13321;SDS011;6730;46.248;6.930;2023-02-15T12:04:21;9.25;;;4.90;;
13321;SDS011;6730;46.248;6.930;2023-02-15T12:07:17;9.75;;;4.90;;
13321;SDS011;6730;46.248;6.930;2023-02-15T12:09:49;7.75;;;5.45;;
13321;SDS011;6730;46.248;6.930;2023-02-15T12:12:39;8.15;;;4.85;;
13321;SDS011;6730;46.248;6.930;2023-02-15T12:15:06;7.88;;;5.07;;
13321;SDS011;6730;46.248;6.930;2023-02-15T12:17:35;7.53;;;4.97;;
13321;SDS011;6730;46.248;6.930;2023-02-15T12:22:41;8.05;;;5.65;;
13321;SDS011;6730;46.248;6.930;2023-02-15T12:25:22;13.35;;;6.30;;
13321;SDS011;6730;46.248;6.930;2023-02-15T12:31:22;7.43;;;5.47;;
13321;SDS011;6730;46.248;6.930;2023-02-15T12:33:48;6.32;;;4.97;;
13321;SDS011;6730;46.248;6.930;2023-02-15T12:36:26;9.80;;;6.38;;
13321;SDS011;6730;46.248;6.930;2023-02-15T12:44:22;10.75;;;6.68;;
13321;SDS011;6730;46.248;6.930;2023-02-15T12:46:58;10.73;;;7.15;;
13321;SDS011;6730;46.248;6.930;2023-02-15T12:49:24;21.60;;;9.27;;
13321;SDS011;6730;46.248;6.930;2023-02-15T12:51:52;12.60;;;9.75;;
13321;SDS011;6730;46.248;6.930;2023-02-15T12:56:47;13.77;;;9.75;;
13321;SDS011;6730;46.248;6.930;2023-02-15T12:59:13;16.65;;;10.73;;
13321;SDS011;6730;46.248;6.930;2023-02-15T13:01:40;14.95;;;9.40;;
13321;SDS011;6730;46.248;6.930;2023-02-15T13:04:14;13.85;;;9.82;;
13321;SDS011;6730;46.248;6.930;2023-02-15T13:06:48;15.13;;;10.35;;
13321;SDS011;6730;46.248;6.930;2023-02-15T13:09:15;15.05;;;9.25;;
13321;SDS011;6730;46.248;6.930;2023-02-15T13:11:47;13.68;;;9.40;;
13321;SDS011;6730;46.248;6.930;2023-02-15T13:16:47;15.77;;;10.95;;
13321;SDS011;6730;46.248;6.930;2023-02-15T13:19:21;17.85;;;11.05;;
13321;SDS011;6730;46.248;6.930;2023-02-15T13:21:53;12.98;;;9.52;;
13321;SDS011;6730;46.248;6.930;2023-02-15T13:24:25;13.30;;;9.82;;
13321;SDS011;6730;46.248;6.930;2023-02-15T13:26:52;17.00;;;11.00;;
13321;SDS011;6730;46.248;6.930;2023-02-15T13:29:24;16.92;;;12.02;;
13321;SDS011;6730;46.248;6.930;2023-02-15T13:31:56;18.15;;;12.30;;
13321;SDS011;6730;46.248;6.930;2023-02-15T13:34:28;19.00;;;11.68;;
13321;SDS011;6730;46.248;6.930;2023-02-15T13:37:20;16.65;;;11.45;;
13321;SDS011;6730;46.248;6.930;2023-02-15T13:39:58;18.73;;;11.13;;
13321;SDS011;6730;46.248;6.930;2023-02-15T13:42:39;17.38;;;11.38;;
13321;SDS011;6730;46.248;6.930;2023-02-15T13:58:31;18.75;;;10.75;;
13321;SDS011;6730;46.248;6.930;2023-02-15T14:09:24;15.35;;;9.93;;
13321;SDS011;6730;46.248;6.930;2023-02-15T14:18:19;17.73;;;11.02;;
13321;SDS011;6730;46.248;6.930;2023-02-15T14:26:52;19.38;;;12.18;;
13321;SDS011;6730;46.248;6.930;2023-02-15T14:29:41;16.23;;;11.00;;
13321;SDS011;6730;46.248;6.930;2023-02-15T14:32:11;18.10;;;11.80;;
13321;SDS011;6730;46.248;6.930;2023-02-15T14:34:44;17.63;;;11.55;;
13321;SDS011;6730;46.248;6.930;2023-02-15T14:43:27;20.70;;;11.82;;
13321;SDS011;6730;46.248;6.930;2023-02-15T14:46:10;18.45;;;10.63;;
13321;SDS011;6730;46.248;6.930;2023-02-15T14:48:47;18.60;;;10.77;;
13321;SDS011;6730;46.248;6.930;2023-02-15T14:54:07;12.75;;;8.32;;
13321;SDS011;6730;46.248;6.930;2023-02-15T14:56:34;12.63;;;8.00;;
13321;SDS011;6730;46.248;6.930;2023-02-15T15:01:55;11.68;;;8.13;;
13321;SDS011;6730;46.248;6.930;2023-02-15T15:09:38;7.95;;;5.47;;
13321;SDS011;6730;46.248;6.930;2023-02-15T15:12:13;4.85;;;3.20;;
13321;SDS011;6730;46.248;6.930;2023-02-15T15:14:46;8.30;;;4.72;;
13321;SDS011;6730;46.248;6.930;2023-02-15T15:20:00;4.60;;;3.72;;
13321;SDS011;6730;46.248;6.930;2023-02-15T15:22:27;5.22;;;3.65;;
13321;SDS011;6730;46.248;6.930;2023-02-15T15:24:54;4.57;;;3.30;;
13321;SDS011;6730;46.248;6.930;2023-02-15T15:41:08;3.80;;;2.60;;
13321;SDS011;6730;46.248;6.930;2023-02-15T15:49:24;2.88;;;2.15;;
13321;SDS011;6730;46.248;6.930;2023-02-15T15:51:56;2.20;;;1.90;;
13321;SDS011;6730;46.248;6.930;2023-02-15T15:54:28;2.45;;;1.40;;
13321;SDS011;6730;46.248;6.930;2023-02-15T15:56:55;2.58;;;1.50;;
13321;SDS011;6730;46.248;6.930;2023-02-15T15:59:33;3.67;;;1.55;;
13321;SDS011;6730;46.248;6.930;2023-02-15T16:02:11;1.60;;;1.50;;
13321;SDS011;6730;46.248;6.930;2023-02-15T16:04:42;1.90;;;1.60;;
13321;SDS011;6730;46.248;6.930;2023-02-15T16:09:55;2.33;;;1.40;;
13321;SDS011;6730;46.248;6.930;2023-02-15T16:12:45;3.72;;;1.10;;
13321;SDS011;6730;46.248;6.930;2023-02-15T16:15:14;8.70;;;1.70;;
13321;SDS011;6730;46.248;6.930;2023-02-15T16:17:46;2.20;;;1.10;;
13321;SDS011;6730;46.248;6.930;2023-02-15T16:20:20;1.80;;;1.30;;
13321;SDS011;6730;46.248;6.930;2023-02-15T16:23:12;1.58;;;1.15;;
13321;SDS011;6730;46.248;6.930;2023-02-15T16:26:10;15.38;;;10.52;;
13321;SDS011;6730;46.248;6.930;2023-02-15T16:28:50;2.17;;;1.38;;
13321;SDS011;6730;46.248;6.930;2023-02-15T16:33:47;2.30;;;1.55;;
13321;SDS011;6730;46.248;6.930;2023-02-15T16:36:28;2.40;;;1.50;;
13321;SDS011;6730;46.248;6.930;2023-02-15T16:41:23;1.45;;;1.13;;
13321;SDS011;6730;46.248;6.930;2023-02-15T16:43:52;1.77;;;1.30;;
13321;SDS011;6730;46.248;6.930;2023-02-15T16:46:30;2.53;;;1.40;;
13321;SDS011;6730;46.248;6.930;2023-02-15T16:49:14;1.95;;;1.75;;
13321;SDS011;6730;46.248;6.930;2023-02-15T16:51:43;2.10;;;1.80;;
13321;SDS011;6730;46.248;6.930;2023-02-15T16:54:17;3.95;;;2.10;;
13321;SDS011;6730;46.248;6.930;2023-02-15T16:56:45;2.50;;;1.60;;
13321;SDS011;6730;46.248;6.930;2023-02-15T17:01:55;3.20;;;1.98;;
13321;SDS011;6730;46.248;6.930;2023-02-15T17:07:02;2.75;;;1.95;;
13321;SDS011;6730;46.248;6.930;2023-02-15T17:09:48;2.35;;;1.60;;
13321;SDS011;6730;46.248;6.930;2023-02-15T17:15:30;4.18;;;1.90;;
13321;SDS011;6730;46.248;6.930;2023-02-15T17:20:52;2.80;;;1.88;;
13321;SDS011;6730;46.248;6.930;2023-02-15T17:25:51;3.75;;;1.60;;
13321;SDS011;6730;46.248;6.930;2023-02-15T17:28:29;2.10;;;1.55;;
13321;SDS011;6730;46.248;6.930;2023-02-15T17:30:56;2.00;;;1.48;;
13321;SDS011;6730;46.248;6.930;2023-02-15T17:33:24;2.08;;;1.52;;
13321;SDS011;6730;46.248;6.930;2023-02-15T17:36:03;1.88;;;1.48;;
13321;SDS011;6730;46.248;6.930;2023-02-15T17:38:31;2.10;;;1.50;;
13321;SDS011;6730;46.248;6.930;2023-02-15T17:40:58;2.75;;;1.33;;
13321;SDS011;6730;46.248;6.930;2023-02-15T17:43:24;2.80;;;1.45;;
13321;SDS011;6730;46.248;6.930;2023-02-15T17:45:50;2.25;;;1.60;;
13321;SDS011;6730;46.248;6.930;2023-02-15T17:48:40;1.70;;;1.25;;
13321;SDS011;6730;46.248;6.930;2023-02-15T17:51:06;2.30;;;1.38;;
13321;SDS011;6730;46.248;6.930;2023-02-15T17:53:36;2.58;;;1.75;;
13321;SDS011;6730;46.248;6.930;2023-02-15T17:56:02;1.77;;;1.40;;
13321;SDS011;6730;46.248;6.930;2023-02-15T17:58:34;2.00;;;1.40;;
13321;SDS011;6730;46.248;6.930;2023-02-15T18:01:01;4.00;;;2.05;;
13321;SDS011;6730;46.248;6.930;2023-02-15T18:03:50;3.08;;;1.60;;
13321;SDS011;6730;46.248;6.930;2023-02-15T18:06:36;2.83;;;2.00;;
13321;SDS011;6730;46.248;6.930;2023-02-15T18:09:22;3.20;;;1.77;;
13321;SDS011;6730;46.248;6.930;2023-02-15T18:14:56;1.55;;;1.40;;
13321;SDS011;6730;46.248;6.930;2023-02-15T18:19:53;2.63;;;1.77;;
13321;SDS011;6730;46.248;6.930;2023-02-15T18:22:19;3.70;;;2.20;;
13321;SDS011;6730;46.248;6.930;2023-02-15T18:24:46;2.28;;;1.73;;
13321;SDS011;6730;46.248;6.930;2023-02-15T18:27:13;2.00;;;1.60;;
13321;SDS011;6730;46.248;6.930;2023-02-15T18:29:39;3.40;;;1.80;;
13321;SDS011;6730;46.248;6.930;2023-02-15T18:32:06;2.58;;;2.05;;
13321;SDS011;6730;46.248;6.930;2023-02-15T18:34:38;1.98;;;1.60;;
13321;SDS011;6730;46.248;6.930;2023-02-15T18:37:05;4.43;;;1.88;;
13321;SDS011;6730;46.248;6.930;2023-02-15T18:39:44;2.53;;;1.88;;
13321;SDS011;6730;46.248;6.930;2023-02-15T18:42:21;2.47;;;1.70;;
13321;SDS011;6730;46.248;6.930;2023-02-15T18:44:52;3.15;;;1.92;;
13321;SDS011;6730;46.248;6.930;2023-02-15T18:47:20;2.55;;;1.90;;
13321;SDS011;6730;46.248;6.930;2023-02-15T18:49:45;3.20;;;1.90;;
13321;SDS011;6730;46.248;6.930;2023-02-15T18:52:18;3.42;;;1.60;;
13321;SDS011;6730;46.248;6.930;2023-02-15T18:54:46;3.10;;;1.83;;
13321;SDS011;6730;46.248;6.930;2023-02-15T18:57:15;2.90;;;1.60;;
13321;SDS011;6730;46.248;6.930;2023-02-15T18:59:41;2.78;;;1.55;;
13321;SDS011;6730;46.248;6.930;2023-02-15T19:02:16;2.00;;;1.55;;